BIRS weather

Reykjanes Airport
Reykjanes, Westfjords, Iceland

Public forecast

Using degrees Celsius for public forecast. Weather courtesy of forecast.io.

Closest aviation weather report (METAR) to Reykjanes Airport

Closest report is Ísafjörður Airport, 19.5 nm (36.1 km) WNW. Retrieved 2019/10/15 09:36 UTC (22 minutes ago):

BIIS 150936Z 35011G21KT 330V040 9999 OVC050 11/01 Q0998 RMK 26 ENDI 30DGR 8KTG18 360V100DGR ARNARNES 160DGR 9KT

Closest aviation forecast (TAF) to Reykjanes Airport

Closest forecast is Reykjavik Airport, 107.8 nm (199.7 km) S. Retrieved 2019/10/15 09:48 UTC (10 minutes ago):

TAF BIRK 150741Z 1509/1609 09017KT 9999 -RA BKN023 OVC030 TX11/1512Z TN08/1603Z BECMG 1512/1514 10022G32KT BECMG 1601/1603 09017KT